createdAt,value
2022-10-30T00:00:44.702Z,109.13
2022-10-30T00:05:44.713Z,109.28
2022-10-30T00:10:41.405Z,112.22
2022-10-30T00:15:37.675Z,112.90
2022-10-30T00:20:35.965Z,112.05
2022-10-30T00:25:32.181Z,111.40
2022-10-30T00:30:28.463Z,110.95
2022-10-30T00:35:24.681Z,107.53
2022-10-30T00:40:21.029Z,113.85
2022-10-30T00:45:17.597Z,106.35
2022-10-30T00:50:16.770Z,107.20
2022-10-30T00:55:15.585Z,108.75
2022-10-30T01:00:12.158Z,109.15
2022-10-30T01:10:06.657Z,108.57
2022-10-30T01:15:03.088Z,107.75
2022-10-30T01:20:06.278Z,116.85
2022-10-30T01:25:05.444Z,114.15
2022-10-30T01:30:07.655Z,113.10
2022-10-30T01:35:22.035Z,113.18
2022-10-30T01:40:18.931Z,116.10
2022-10-30T01:45:35.374Z,115.10
2022-10-30T01:50:47.466Z,116.00
2022-10-30T01:56:13.848Z,117.20
2022-10-30T02:01:10.338Z,111.78
2022-10-30T02:06:06.656Z,114.25
2022-10-30T02:11:03.161Z,112.65
2022-10-30T02:15:59.375Z,113.18
2022-10-30T02:20:55.790Z,116.18
2022-10-30T02:25:52.028Z,113.78
2022-10-30T02:30:48.227Z,112.32
2022-10-30T02:35:44.439Z,111.95
2022-10-30T02:40:40.755Z,114.20
2022-10-30T02:45:36.969Z,116.45
2022-10-30T02:50:33.293Z,111.88
2022-10-30T02:55:29.518Z,113.10
2022-10-30T03:00:25.753Z,113.95
2022-10-30T03:05:22.218Z,113.00
2022-10-30T03:10:18.575Z,114.55
2022-10-30T03:15:14.778Z,112.50
2022-10-30T03:20:11.178Z,111.70
2022-10-30T03:25:07.741Z,113.28
2022-10-30T03:30:04.087Z,114.60
2022-10-30T03:35:00.303Z,112.15
2022-10-30T03:39:56.510Z,112.45
2022-10-30T03:44:52.729Z,112.57
2022-10-30T03:49:48.940Z,114.75
2022-10-30T03:54:45.180Z,112.80
2022-10-30T03:59:41.377Z,115.03
2022-10-30T04:04:37.570Z,109.80
2022-10-30T04:09:33.781Z,111.63
2022-10-30T04:14:29.971Z,109.95
2022-10-30T04:19:26.149Z,115.85
2022-10-30T04:24:22.521Z,111.15
2022-10-30T04:29:18.730Z,111.28
2022-10-30T04:34:15.019Z,115.10
2022-10-30T04:39:11.240Z,111.43
2022-10-30T04:44:07.436Z,112.97
2022-10-30T04:49:03.682Z,110.18
2022-10-30T04:53:59.892Z,109.65
2022-10-30T04:58:56.118Z,107.93
2022-10-30T05:03:54.693Z,108.20
2022-10-30T05:08:51.366Z,109.90
2022-10-30T05:13:47.932Z,104.57
2022-10-30T05:18:44.138Z,104.75
2022-10-30T05:23:40.387Z,105.97
2022-10-30T05:28:36.590Z,104.10
2022-10-30T05:33:32.813Z,104.30
2022-10-30T05:38:29.134Z,105.35
2022-10-30T05:43:25.402Z,104.50
2022-10-30T05:48:21.736Z,104.55
2022-10-30T05:53:17.936Z,103.95
2022-10-30T05:58:14.182Z,102.70
2022-10-30T06:03:11.805Z,108.80
2022-10-30T06:08:08.014Z,108.93
2022-10-30T06:13:05.642Z,103.85
2022-10-30T06:18:02.256Z,104.88
2022-10-30T06:22:59.845Z,107.00
2022-10-30T06:27:56.510Z,106.68
2022-10-30T06:33:00.612Z,107.35
2022-10-30T06:38:01.117Z,104.85
2022-10-30T06:42:58.087Z,109.65
2022-10-30T06:47:54.602Z,103.50
2022-10-30T06:52:51.222Z,106.20
2022-10-30T06:57:53.418Z,106.57
2022-10-30T07:03:00.178Z,105.13
2022-10-30T07:07:57.227Z,107.50
2022-10-30T07:12:54.429Z,104.18
2022-10-30T07:17:58.208Z,98.38
2022-10-30T07:22:54.746Z,97.35
2022-10-30T07:27:51.882Z,97.15
2022-10-30T07:32:56.974Z,97.57
2022-10-30T07:37:53.754Z,98.53
2022-10-30T07:42:55.225Z,94.13
2022-10-30T07:47:51.515Z,96.15
2022-10-30T07:52:47.853Z,97.95
2022-10-30T07:57:44.173Z,97.55
2022-10-30T08:02:40.760Z,98.95
2022-10-30T08:07:37.795Z,102.68
2022-10-30T08:12:34.667Z,99.70
2022-10-30T08:17:30.990Z,100.75
2022-10-30T08:22:27.289Z,99.38
2022-10-30T08:27:23.476Z,100.10
2022-10-30T08:32:19.702Z,101.50
2022-10-30T08:37:17.300Z,105.72
2022-10-30T08:42:13.538Z,106.40
2022-10-30T08:47:09.757Z,99.85
2022-10-30T08:52:09.310Z,105.53
2022-10-30T08:57:06.580Z,101.90
2022-10-30T09:02:02.952Z,102.30
2022-10-30T09:07:00.802Z,102.47
2022-10-30T09:11:57.018Z,104.75
2022-10-30T09:16:54.325Z,108.93
2022-10-30T09:21:50.578Z,114.30
2022-10-30T09:26:46.797Z,109.53
2022-10-30T09:31:43.050Z,114.55
2022-10-30T09:36:39.313Z,121.43
2022-10-30T09:41:35.763Z,117.32
2022-10-30T09:46:41.506Z,113.43
2022-10-30T09:51:37.770Z,85.95
2022-10-30T09:56:43.410Z,63.30
2022-10-30T10:01:42.820Z,51.97
2022-10-30T10:06:43.027Z,41.50
2022-10-30T10:11:40.965Z,38.35
2022-10-30T10:16:39.167Z,34.72
2022-10-30T10:21:39.478Z,33.28
2022-10-30T10:26:58.743Z,33.15
2022-10-30T10:31:57.807Z,29.88
2022-10-30T10:37:20.241Z,27.55
2022-10-30T10:42:19.392Z,28.90
2022-10-30T10:47:34.196Z,31.50
2022-10-30T10:52:36.167Z,31.30
2022-10-30T10:57:33.433Z,28.52
2022-10-30T11:02:32.856Z,27.92
2022-10-30T11:07:33.496Z,25.20
2022-10-30T11:12:33.923Z,24.33
2022-10-30T11:17:40.247Z,25.95
2022-10-30T11:22:42.785Z,23.90
2022-10-30T11:27:39.051Z,21.52
2022-10-30T11:32:35.391Z,21.05
2022-10-30T11:37:32.930Z,21.98
2022-10-30T11:42:29.469Z,22.42
2022-10-30T11:47:31.591Z,21.38
2022-10-30T11:52:28.224Z,21.17
2022-10-30T11:57:30.255Z,19.63
2022-10-30T12:02:28.374Z,18.83
2022-10-30T12:07:27.883Z,19.30
2022-10-30T12:12:33.051Z,18.55
2022-10-30T12:17:29.791Z,16.40
2022-10-30T12:22:32.946Z,16.38
2022-10-30T12:27:29.858Z,16.45
2022-10-30T12:32:28.352Z,14.77
2022-10-30T12:37:26.434Z,14.40
2022-10-30T12:42:24.779Z,15.65
2022-10-30T12:47:20.987Z,14.27
2022-10-30T12:52:23.745Z,15.40
2022-10-30T12:57:27.911Z,16.85
2022-10-30T13:02:33.353Z,17.05
2022-10-30T13:07:33.598Z,15.55
2022-10-30T13:12:32.218Z,16.52
2022-10-30T13:17:29.147Z,17.30
2022-10-30T13:22:30.769Z,18.20
2022-10-30T13:27:38.651Z,17.88
2022-10-30T13:32:41.160Z,16.73
2022-10-30T13:37:55.337Z,15.75
2022-10-30T13:43:00.699Z,14.93
2022-10-30T13:48:15.514Z,16.50
2022-10-30T13:53:15.470Z,15.90
2022-10-30T13:58:34.403Z,17.13
2022-10-30T14:03:55.246Z,16.85
2022-10-30T14:09:03.310Z,17.90
2022-10-30T14:14:24.013Z,18.45
2022-10-30T14:19:20.217Z,19.92
2022-10-30T14:24:16.540Z,19.77
2022-10-30T14:29:32.191Z,20.83
2022-10-30T14:34:44.870Z,19.00
2022-10-30T14:44:46.444Z,21.15
2022-10-30T14:49:45.761Z,24.10
2022-10-30T14:54:51.778Z,25.63
2022-10-30T14:59:48.001Z,28.35
2022-10-30T15:04:52.485Z,29.30
2022-10-30T15:10:00.629Z,31.00
2022-10-30T15:14:59.262Z,29.92
2022-10-30T15:19:55.863Z,35.47
2022-10-30T15:24:52.105Z,40.63
2022-10-30T15:30:00.628Z,42.55
2022-10-30T15:35:00.038Z,49.63
2022-10-30T15:40:15.005Z,53.80
2022-10-30T15:45:15.852Z,54.72
2022-10-30T15:50:12.103Z,58.08
2022-10-30T15:55:12.125Z,63.45
2022-10-30T16:05:21.260Z,67.90
2022-10-30T16:10:18.311Z,68.47
2022-10-30T16:15:28.329Z,75.75
2022-10-30T16:20:24.546Z,75.80
2022-10-30T16:25:21.261Z,76.97
2022-10-30T16:30:17.588Z,81.65
2022-10-30T16:35:14.103Z,88.38
2022-10-30T16:40:12.611Z,85.38
2022-10-30T16:45:11.955Z,85.70
2022-10-30T16:50:12.437Z,91.07
2022-10-30T16:55:13.437Z,92.70
2022-10-30T17:00:18.546Z,90.63
2022-10-30T17:05:34.123Z,93.50
2022-10-30T17:10:44.410Z,95.30
2022-10-30T17:15:41.509Z,93.20
2022-10-30T17:20:37.912Z,95.85
2022-10-30T17:25:35.770Z,95.53
2022-10-30T17:30:36.721Z,95.88
2022-10-30T17:35:33.820Z,100.68
2022-10-30T17:40:31.093Z,102.05
2022-10-30T17:45:27.341Z,102.35
2022-10-30T17:50:23.564Z,101.82
2022-10-30T17:55:22.429Z,107.28
2022-10-30T18:00:18.777Z,104.85
2022-10-30T18:05:17.461Z,103.93
2022-10-30T18:10:13.692Z,104.72
2022-10-30T18:15:15.983Z,107.78
2022-10-30T18:20:12.205Z,111.07
2022-10-30T18:25:34.734Z,111.28
2022-10-30T18:30:31.047Z,108.72
2022-10-30T18:35:27.308Z,107.28
2022-10-30T18:40:23.830Z,112.18
2022-10-30T18:45:24.347Z,112.32
2022-10-30T18:50:21.695Z,120.88
2022-10-30T18:55:25.212Z,121.25
2022-10-30T19:00:25.867Z,118.47
2022-10-30T19:05:25.508Z,120.32
2022-10-30T19:10:22.421Z,118.97
2022-10-30T19:15:20.719Z,119.85
2022-10-30T19:20:16.925Z,118.80
2022-10-30T19:25:17.379Z,114.10
2022-10-30T19:30:13.828Z,112.63
2022-10-30T19:35:10.604Z,113.05
2022-10-30T19:40:13.023Z,115.53
2022-10-30T19:45:09.678Z,114.90
2022-10-30T19:50:22.918Z,117.80
2022-10-30T19:55:19.770Z,114.95
2022-10-30T20:00:18.137Z,120.25
2022-10-30T20:05:15.741Z,118.20
2022-10-30T20:10:16.183Z,119.30
2022-10-30T20:15:13.735Z,119.03
2022-10-30T20:20:14.755Z,114.03
2022-10-30T20:25:11.033Z,114.28
2022-10-30T20:30:08.053Z,113.88
2022-10-30T20:35:08.837Z,114.45
2022-10-30T20:40:11.581Z,114.30
2022-10-30T20:45:10.570Z,116.07
2022-10-30T20:50:07.195Z,118.30
2022-10-30T20:55:03.585Z,115.82
2022-10-30T20:59:59.852Z,116.70
2022-10-30T21:04:56.102Z,118.45
2022-10-30T21:09:52.315Z,120.65
2022-10-30T21:14:48.544Z,115.03
2022-10-30T21:19:45.192Z,117.13
2022-10-30T21:24:41.486Z,112.85
2022-10-30T21:29:37.701Z,116.43
2022-10-30T21:34:34.036Z,118.03
2022-10-30T21:39:30.884Z,119.20
2022-10-30T21:44:27.197Z,117.68
2022-10-30T21:49:23.385Z,118.38
2022-10-30T21:54:20.053Z,116.43
2022-10-30T21:59:16.258Z,120.32
2022-10-30T22:04:12.542Z,118.72
2022-10-30T22:09:09.279Z,117.15
2022-10-30T22:14:05.983Z,114.28
2022-10-30T22:19:03.029Z,117.55
2022-10-30T22:24:00.273Z,116.78
2022-10-30T22:28:57.706Z,118.30
2022-10-30T22:33:53.918Z,114.47
2022-10-30T22:38:54.404Z,111.85
2022-10-30T22:43:51.505Z,113.93
2022-10-30T22:48:47.783Z,109.53
2022-10-30T22:53:45.227Z,114.60
2022-10-30T22:58:41.809Z,116.32
2022-10-30T23:03:38.260Z,113.03
2022-10-30T23:08:35.100Z,109.60
2022-10-30T23:13:31.762Z,111.47
2022-10-30T23:18:28.322Z,111.15
2022-10-30T23:23:24.576Z,113.97
2022-10-30T23:28:20.947Z,114.25
2022-10-30T23:33:17.150Z,112.15
2022-10-30T23:38:13.449Z,115.47
2022-10-30T23:43:09.690Z,110.68
2022-10-30T23:48:06.124Z,107.65
2022-10-30T23:53:02.560Z,109.15
2022-10-30T23:57:59.184Z,112.30
